Time;durP1;ratioP1;P1;durP2;ratioP2;P2;SDS_P1;SDS_P2;PMS_P1;PMS_P2;Temp;Humidity;BMP_temperature;BMP_pressure;BME280_temperature;BME280_humidity;BME280_pressure;Samples;Min_cycle;Max_cycle;Signal;HPM_P1;HPM_P2
2021/11/20 00:01:50;;;;;;;12.35;9.10;;;8.70;99.90;;;;;;5071967;28;20197;-54
2021/11/20 00:04:16;;;;;;;12.45;9.63;;;8.50;99.90;;;;;;5075550;28;20601;-57
2021/11/20 00:06:48;;;;;;;14.48;10.68;;;8.50;99.90;;;;;;5076363;28;20185;-54
2021/11/20 00:09:16;;;;;;;11.85;9.43;;;8.50;99.90;;;;;;5073111;28;20260;-54
2021/11/20 00:11:44;;;;;;;12.73;9.60;;;8.50;99.90;;;;;;5080549;28;20240;-54
2021/11/20 00:14:12;;;;;;;12.88;9.27;;;8.60;99.90;;;;;;5079080;28;20243;-54
2021/11/20 00:16:40;;;;;;;11.25;8.13;;;8.60;99.90;;;;;;5081968;28;20781;-54
2021/11/20 00:19:06;;;;;;;12.50;8.98;;;8.40;99.90;;;;;;5071109;28;20726;-54
2021/11/20 00:21:45;;;;;;;12.32;9.45;;;8.60;99.90;;;;;;5070320;28;20670;-54
2021/11/20 00:24:19;;;;;;;12.15;8.45;;;8.60;99.90;;;;;;5082172;28;20184;-54
2021/11/20 00:26:45;;;;;;;9.35;8.25;;;8.50;99.90;;;;;;5070781;28;20184;-54
2021/11/20 00:29:19;;;;;;;11.87;9.30;;;8.30;99.90;;;;;;5070918;28;20242;-53
2021/11/20 00:31:54;;;;;;;12.52;9.68;;;8.50;99.90;;;;;;5055231;28;20465;-54
2021/11/20 00:34:27;;;;;;;13.88;9.77;;;8.60;99.90;;;;;;5072180;28;20596;-53
2021/11/20 00:36:53;;;;;;;11.40;8.90;;;8.30;99.90;;;;;;5069971;28;20193;-53
2021/11/20 00:39:22;;;;;;;11.85;8.93;;;8.60;99.90;;;;;;5079316;28;20220;-53
2021/11/20 00:41:48;;;;;;;12.23;10.02;;;8.30;99.90;;;;;;5090416;28;20204;-53
2021/11/20 00:44:14;;;;;;;11.50;9.05;;;8.40;99.90;;;;;;5090682;28;20218;-53
2021/11/20 00:46:41;;;;;;;12.13;9.20;;;8.40;99.90;;;;;;5086253;28;20176;-54
2021/11/20 00:49:07;;;;;;;13.20;10.05;;;8.60;99.90;;;;;;5070561;28;20720;-53
2021/11/20 00:51:34;;;;;;;14.00;9.85;;;8.60;99.90;;;;;;5070527;28;20217;-53
2021/11/20 00:54:00;;;;;;;12.13;9.85;;;8.50;99.90;;;;;;5070385;28;20192;-53
2021/11/20 00:56:29;;;;;;;13.15;10.13;;;8.50;99.90;;;;;;5069579;28;20188;-53
2021/11/20 00:58:55;;;;;;;13.88;10.45;;;8.60;99.90;;;;;;5070301;28;20547;-53
2021/11/20 01:01:27;;;;;;;14.98;10.98;;;8.60;99.90;;;;;;5070396;28;20205;-53
2021/11/20 01:03:53;;;;;;;13.00;10.23;;;8.70;99.90;;;;;;5068873;28;20173;-54
2021/11/20 01:06:20;;;;;;;13.90;10.40;;;8.60;99.90;;;;;;5071286;28;20177;-54
2021/11/20 01:08:48;;;;;;;18.08;10.35;;;8.40;99.90;;;;;;5075006;28;20197;-55
2021/11/20 01:11:20;;;;;;;16.80;10.77;;;8.20;99.90;;;;;;5083068;28;20196;-53
2021/11/20 01:13:46;;;;;;;15.07;10.80;;;8.40;99.90;;;;;;5075496;28;20188;-54
2021/11/20 01:16:14;;;;;;;13.30;10.15;;;8.50;99.90;;;;;;5077495;28;20184;-54
2021/11/20 01:18:41;;;;;;;15.18;10.70;;;8.40;99.90;;;;;;5069107;28;20200;-53
2021/11/20 01:21:07;;;;;;;17.08;10.23;;;8.50;99.90;;;;;;5070112;28;20192;-53
2021/11/20 01:23:33;;;;;;;13.25;9.85;;;8.30;99.90;;;;;;5086084;28;20232;-53
2021/11/20 01:26:00;;;;;;;14.95;10.93;;;8.60;99.90;;;;;;5073898;28;20191;-54
2021/11/20 01:28:28;;;;;;;11.50;10.02;;;8.40;99.90;;;;;;5090741;28;20592;-53
2021/11/20 01:30:55;;;;;;;14.23;10.57;;;8.20;99.90;;;;;;5090481;28;20203;-54
2021/11/20 01:33:22;;;;;;;14.23;10.65;;;8.30;99.90;;;;;;5071895;28;20764;-54
2021/11/20 01:35:48;;;;;;;13.15;10.63;;;8.20;99.90;;;;;;5068962;28;20242;-54
2021/11/20 01:38:15;;;;;;;16.42;11.55;;;8.50;99.90;;;;;;5069398;28;20665;-54
2021/11/20 01:40:43;;;;;;;13.93;11.63;;;8.60;99.90;;;;;;5083784;28;20197;-53
2021/11/20 01:43:09;;;;;;;15.65;11.13;;;8.30;99.90;;;;;;5069572;28;20258;-53
2021/11/20 01:46:01;;;;;;;14.32;10.30;;;8.30;99.90;;;;;;5069602;28;20185;-53
2021/11/20 01:48:34;;;;;;;16.00;11.80;;;8.10;99.90;;;;;;5055876;28;20563;-54
2021/11/20 01:51:11;;;;;;;16.27;11.23;;;8.20;99.90;;;;;;5085194;28;20664;-54
2021/11/20 01:53:51;;;;;;;16.13;11.15;;;8.30;99.90;;;;;;5077440;28;20199;-54
2021/11/20 01:56:35;;;;;;;13.23;9.93;;;8.40;99.90;;;;;;5072762;28;20235;-54
2021/11/20 01:59:09;;;;;;;14.05;9.93;;;8.30;99.90;;;;;;5069511;28;20213;-53
2021/11/20 02:01:49;;;;;;;16.08;12.38;;;8.20;99.90;;;;;;5069365;28;20207;-53
2021/11/20 02:04:43;;;;;;;13.35;10.80;;;8.30;99.90;;;;;;5079465;28;20238;-53
2021/11/20 02:07:32;;;;;;;15.25;11.15;;;8.30;99.90;;;;;;5033465;28;20316;-53
2021/11/20 02:10:10;;;;;;;16.08;10.32;;;8.40;99.90;;;;;;5054575;28;20213;-53
2021/11/20 02:12:46;;;;;;;14.82;10.10;;;8.50;99.90;;;;;;5079308;28;20181;-53
2021/11/20 02:15:24;;;;;;;13.85;10.38;;;8.60;99.90;;;;;;5055091;28;20284;-53
2021/11/20 02:17:54;;;;;;;15.07;11.02;;;8.30;99.90;;;;;;5072013;28;20589;-53
2021/11/20 02:20:29;;;;;;;13.52;10.88;;;8.20;99.90;;;;;;5069180;28;20251;-54
2021/11/20 02:22:54;;;;;;;13.68;11.00;;;8.10;99.90;;;;;;5088233;28;20191;-53
2021/11/20 02:25:21;;;;;;;15.00;10.37;;;8.20;99.90;;;;;;5071307;28;20192;-53
2021/11/20 02:27:49;;;;;;;15.68;11.00;;;8.30;99.90;;;;;;5072223;28;20220;-53
2021/11/20 02:30:21;;;;;;;13.10;9.50;;;8.40;99.90;;;;;;5079831;28;20223;-53
2021/11/20 02:32:54;;;;;;;13.05;9.15;;;8.20;99.90;;;;;;5092415;28;20172;-54
2021/11/20 02:35:28;;;;;;;12.48;10.45;;;8.20;99.90;;;;;;5073375;28;20193;-53
2021/11/20 02:37:54;;;;;;;12.60;9.70;;;8.50;99.90;;;;;;5072452;28;20518;-54
2021/11/20 02:40:20;;;;;;;12.43;9.45;;;8.30;99.90;;;;;;5072531;28;20201;-54
2021/11/20 02:42:46;;;;;;;13.32;9.52;;;8.30;99.90;;;;;;5054887;28;20284;-53
2021/11/20 02:45:19;;;;;;;12.65;10.60;;;8.50;99.90;;;;;;5083095;28;20587;-53
2021/11/20 02:47:45;;;;;;;13.02;9.82;;;8.60;99.90;;;;;;5079159;28;20650;-54
2021/11/20 02:50:12;;;;;;;14.00;10.00;;;8.50;99.90;;;;;;5073299;28;20537;-54
2021/11/20 02:52:37;;;;;;;11.25;8.98;;;8.50;99.90;;;;;;5073073;28;20185;-53
2021/11/20 02:55:06;;;;;;;15.83;10.73;;;8.50;99.90;;;;;;5072703;28;20181;-54
2021/11/20 02:57:36;;;;;;;14.43;10.93;;;8.40;99.90;;;;;;5074853;28;20196;-53
2021/11/20 03:00:07;;;;;;;11.50;9.20;;;8.60;99.90;;;;;;5088799;28;20216;-53
2021/11/20 03:02:32;;;;;;;12.20;9.85;;;8.60;99.90;;;;;;5085822;28;20180;-53
2021/11/20 03:04:58;;;;;;;14.67;10.57;;;8.50;99.90;;;;;;5072208;28;20529;-53
2021/11/20 03:07:24;;;;;;;13.37;10.70;;;8.70;99.90;;;;;;5072974;28;20912;-54
2021/11/20 03:09:49;;;;;;;13.03;9.33;;;8.70;99.90;;;;;;5072323;28;20244;-53
2021/11/20 03:12:15;;;;;;;11.27;9.27;;;8.90;99.90;;;;;;5079360;28;20188;-53
2021/11/20 03:14:43;;;;;;;13.17;9.87;;;8.40;99.90;;;;;;5072639;28;20632;-54
2021/11/20 03:17:10;;;;;;;12.50;10.52;;;8.40;99.90;;;;;;5077881;28;20846;-53
2021/11/20 03:19:45;;;;;;;16.40;12.48;;;8.40;99.90;;;;;;5071844;28;20208;-54
2021/11/20 03:22:34;;;;;;;15.40;10.88;;;8.30;99.90;;;;;;5055509;28;20191;-54
2021/11/20 03:25:00;;;;;;;14.55;11.35;;;8.30;99.90;;;;;;5072224;28;20189;-53
2021/11/20 03:27:26;;;;;;;13.80;10.10;;;8.50;99.90;;;;;;5070421;28;20353;-53
2021/11/20 03:29:52;;;;;;;15.70;11.80;;;8.30;99.90;;;;;;5076897;28;20209;-53
2021/11/20 03:32:18;;;;;;;14.40;11.30;;;8.30;99.90;;;;;;5072353;28;20253;-53
2021/11/20 03:34:45;;;;;;;13.32;10.15;;;8.40;99.90;;;;;;5072501;28;20536;-53
2021/11/20 03:37:11;;;;;;;15.00;10.93;;;8.60;99.90;;;;;;5072823;28;20661;-53
2021/11/20 03:39:38;;;;;;;14.82;10.88;;;8.40;99.90;;;;;;5079547;28;20708;-54
2021/11/20 03:42:04;;;;;;;14.70;10.68;;;8.60;99.90;;;;;;5071349;28;20263;-53
2021/11/20 03:44:31;;;;;;;14.65;10.25;;;8.60;99.90;;;;;;5071792;28;20798;-53
2021/11/20 03:46:57;;;;;;;15.95;11.20;;;8.30;99.90;;;;;;5071490;28;20193;-54
2021/11/20 03:49:23;;;;;;;14.98;10.55;;;8.60;99.90;;;;;;5071590;28;20306;-54
2021/11/20 03:51:48;;;;;;;16.03;11.83;;;8.50;99.90;;;;;;5072140;28;20687;-54
2021/11/20 03:54:15;;;;;;;16.47;11.10;;;8.30;99.90;;;;;;5072078;28;20681;-53
2021/11/20 03:56:41;;;;;;;18.88;12.13;;;8.50;99.90;;;;;;5071093;28;20684;-53
2021/11/20 03:59:07;;;;;;;17.05;11.40;;;8.60;99.90;;;;;;5073865;28;20216;-53
2021/11/20 04:01:33;;;;;;;15.95;11.40;;;8.30;99.90;;;;;;5073847;28;20201;-53
2021/11/20 04:03:59;;;;;;;12.55;9.93;;;8.40;99.90;;;;;;5071421;28;20212;-53
2021/11/20 04:06:25;;;;;;;13.90;11.27;;;8.40;99.90;;;;;;5071921;28;20212;-53
2021/11/20 04:08:52;;;;;;;16.50;10.90;;;8.30;99.90;;;;;;5073122;28;20475;-53
2021/11/20 04:11:36;;;;;;;15.70;11.40;;;8.20;99.90;;;;;;5072538;28;20228;-54
2021/11/20 04:14:02;;;;;;;15.32;11.30;;;8.40;99.90;;;;;;5091705;28;20263;-54
2021/11/20 04:16:29;;;;;;;18.67;12.40;;;8.50;99.90;;;;;;5082672;28;20177;-53
2021/11/20 04:18:55;;;;;;;15.52;10.50;;;8.30;99.90;;;;;;5060045;28;20296;-53
2021/11/20 04:21:22;;;;;;;17.75;12.65;;;7.80;99.90;;;;;;5070582;28;20204;-53
2021/11/20 04:23:49;;;;;;;13.00;10.10;;;8.30;99.90;;;;;;5070513;28;20238;-53
2021/11/20 04:26:18;;;;;;;15.20;10.70;;;8.60;99.90;;;;;;5070747;28;20188;-54
2021/11/20 04:28:44;;;;;;;14.48;10.82;;;8.50;99.90;;;;;;5074497;28;20311;-53
2021/11/20 04:31:11;;;;;;;15.70;10.90;;;8.40;99.90;;;;;;5071002;28;20724;-54
2021/11/20 04:33:37;;;;;;;16.00;11.15;;;8.20;99.90;;;;;;5088247;28;20903;-54
2021/11/20 04:36:04;;;;;;;14.23;10.90;;;8.50;99.90;;;;;;5090835;28;20184;-53
2021/11/20 04:38:30;;;;;;;15.07;10.50;;;8.50;99.90;;;;;;5087485;28;20985;-54
2021/11/20 04:40:56;;;;;;;13.83;9.83;;;8.50;99.90;;;;;;5074749;28;20211;-54
2021/11/20 04:43:21;;;;;;;12.90;9.40;;;8.40;99.90;;;;;;5083734;28;20568;-53
2021/11/20 04:45:48;;;;;;;14.43;10.03;;;8.50;99.90;;;;;;5079975;28;20180;-53
2021/11/20 04:48:16;;;;;;;13.70;9.27;;;8.60;99.90;;;;;;5086210;28;20527;-54
2021/11/20 04:50:43;;;;;;;14.45;10.52;;;8.70;99.90;;;;;;5082959;28;20211;-53
2021/11/20 04:53:08;;;;;;;15.60;11.02;;;9.00;99.90;;;;;;5090371;28;20556;-53
2021/11/20 04:55:34;;;;;;;13.90;9.43;;;8.60;99.90;;;;;;5070840;28;20181;-54
2021/11/20 04:58:00;;;;;;;13.00;9.60;;;8.50;99.90;;;;;;5074239;28;20345;-54
2021/11/20 05:00:30;;;;;;;11.37;9.13;;;8.70;99.90;;;;;;5073507;28;20462;-54
2021/11/20 05:02:57;;;;;;;13.65;9.13;;;8.60;99.90;;;;;;5078027;28;20566;-54
2021/11/20 05:05:23;;;;;;;13.77;9.98;;;8.40;99.90;;;;;;5086335;28;20329;-53
2021/11/20 05:07:49;;;;;;;11.93;8.73;;;8.50;99.90;;;;;;5075729;28;20172;-53
2021/11/20 05:10:15;;;;;;;13.13;8.77;;;8.70;99.90;;;;;;5073070;28;20918;-53
2021/11/20 05:12:42;;;;;;;12.75;8.98;;;8.10;99.90;;;;;;5070705;28;20412;-53
2021/11/20 05:15:10;;;;;;;13.02;10.23;;;8.80;99.90;;;;;;5071197;28;20181;-53
2021/11/20 05:17:35;;;;;;;13.23;9.45;;;8.90;99.90;;;;;;5090326;28;20179;-54
2021/11/20 05:20:02;;;;;;;12.90;8.50;;;8.70;99.90;;;;;;5081410;28;20216;-53
2021/11/20 05:22:27;;;;;;;10.95;7.55;;;8.60;99.90;;;;;;5075209;28;20189;-53
2021/11/20 05:24:53;;;;;;;12.50;8.40;;;8.40;99.90;;;;;;5070683;28;20202;-54
2021/11/20 05:27:19;;;;;;;10.07;7.57;;;8.70;99.90;;;;;;5070388;28;20260;-54
2021/11/20 05:32:16;;;;;;;11.88;8.32;;;8.00;99.90;;;;;;5071469;28;20442;-53
2021/11/20 05:34:42;;;;;;;10.97;7.40;;;8.90;99.90;;;;;;5071411;28;20190;-53
2021/11/20 05:37:08;;;;;;;11.10;8.20;;;8.50;99.90;;;;;;5074009;28;20276;-54
2021/11/20 05:39:33;;;;;;;12.70;9.20;;;8.90;99.90;;;;;;5070081;28;20223;-54
2021/11/20 05:42:00;;;;;;;10.10;7.70;;;8.60;99.90;;;;;;5085517;28;20185;-54
2021/11/20 05:44:27;;;;;;;12.00;8.30;;;8.80;99.90;;;;;;5072091;28;20410;-54
2021/11/20 05:46:58;;;;;;;11.23;8.07;;;8.90;99.90;;;;;;5078859;28;20189;-54
2021/11/20 05:49:26;;;;;;;10.30;7.82;;;8.90;99.90;;;;;;5069748;28;20181;-53
2021/11/20 05:51:51;;;;;;;11.02;8.13;;;9.00;99.90;;;;;;5073373;28;20200;-54
2021/11/20 05:54:17;;;;;;;8.93;7.50;;;9.10;99.90;;;;;;5076281;28;20233;-53
2021/11/20 05:56:42;;;;;;;9.57;6.80;;;8.90;99.90;;;;;;5079268;28;20633;-53
2021/11/20 05:59:08;;;;;;;10.03;7.73;;;9.10;99.90;;;;;;5070785;28;20205;-54
2021/11/20 06:01:34;;;;;;;8.75;7.55;;;8.80;99.90;;;;;;5069236;28;20198;-54
2021/11/20 06:04:00;;;;;;;9.93;7.40;;;8.80;99.90;;;;;;5070820;28;20218;-53
2021/11/20 06:06:26;;;;;;;8.83;7.27;;;8.80;99.90;;;;;;5072904;28;20200;-54
2021/11/20 06:08:52;;;;;;;8.82;7.30;;;9.00;99.90;;;;;;5073693;28;20679;-54
2021/11/20 06:11:19;;;;;;;8.60;7.57;;;9.10;99.90;;;;;;5083151;28;20208;-54
2021/11/20 06:13:45;;;;;;;9.27;8.25;;;9.20;99.90;;;;;;5077677;28;20185;-54
2021/11/20 06:16:11;;;;;;;9.95;7.57;;;8.90;99.90;;;;;;5077445;28;20180;-53
2021/11/20 06:18:36;;;;;;;12.20;7.40;;;9.10;99.90;;;;;;5086155;28;20211;-53
2021/11/20 06:21:04;;;;;;;10.90;7.60;;;8.80;99.90;;;;;;5074027;28;20733;-54
2021/11/20 06:23:30;;;;;;;9.13;7.18;;;8.90;99.90;;;;;;5073697;28;20684;-54
2021/11/20 06:25:57;;;;;;;7.95;6.80;;;8.80;99.90;;;;;;5087744;28;20192;-53
2021/11/20 06:28:23;;;;;;;8.77;7.63;;;8.80;99.90;;;;;;5082678;28;20508;-54
2021/11/20 06:30:50;;;;;;;10.05;7.68;;;8.80;99.90;;;;;;5081834;28;20209;-53
2021/11/20 06:33:17;;;;;;;9.20;7.10;;;8.90;99.90;;;;;;5084432;28;20661;-54
2021/11/20 06:35:43;;;;;;;8.32;7.50;;;8.90;99.90;;;;;;5072567;28;20192;-54
2021/11/20 06:38:09;;;;;;;11.00;9.00;;;8.80;99.90;;;;;;5073082;28;20197;-53
2021/11/20 06:40:46;;;;;;;10.32;8.60;;;8.40;99.90;;;;;;5075447;28;20454;-53
2021/11/20 06:43:14;;;;;;;11.23;8.60;;;8.80;99.90;;;;;;5075668;28;20193;-53
2021/11/20 06:45:43;;;;;;;15.18;9.05;;;8.70;99.90;;;;;;5076211;28;20189;-53
2021/11/20 06:48:10;;;;;;;13.35;8.98;;;8.90;99.90;;;;;;5078247;28;20204;-53
2021/11/20 06:50:37;;;;;;;9.98;7.80;;;8.80;99.90;;;;;;5072685;28;20250;-54
2021/11/20 06:53:06;;;;;;;10.90;8.13;;;8.80;99.90;;;;;;5075240;28;20279;-53
2021/11/20 06:55:34;;;;;;;13.30;8.70;;;8.80;99.90;;;;;;5072485;28;20187;-53
2021/11/20 07:01:03;;;;;;;11.77;8.32;;;8.80;99.90;;;;;;5073086;28;20250;-53
2021/11/20 07:03:43;;;;;;;12.07;8.57;;;8.70;99.90;;;;;;5071827;28;20187;-53
2021/11/20 07:06:16;;;;;;;10.25;7.88;;;9.00;99.90;;;;;;5077603;28;20259;-53
2021/11/20 07:08:43;;;;;;;10.65;8.38;;;8.60;99.90;;;;;;5071855;28;20189;-53
2021/11/20 07:11:10;;;;;;;9.85;8.40;;;9.10;99.90;;;;;;5079283;28;20196;-54
2021/11/20 07:13:36;;;;;;;9.63;8.23;;;8.80;99.90;;;;;;5074472;28;20555;-54
2021/11/20 07:16:03;;;;;;;11.85;8.18;;;8.90;99.90;;;;;;5084592;28;20437;-54
2021/11/20 07:18:29;;;;;;;10.65;8.30;;;8.90;99.90;;;;;;5073499;28;20242;-54
2021/11/20 07:20:55;;;;;;;9.77;8.57;;;8.60;99.90;;;;;;5072100;28;20326;-53
2021/11/20 07:23:21;;;;;;;14.53;9.00;;;8.90;99.90;;;;;;5072108;28;20203;-53
2021/11/20 07:25:47;;;;;;;10.05;8.27;;;8.70;99.90;;;;;;5081210;28;20181;-54
2021/11/20 07:28:13;;;;;;;11.90;9.18;;;8.60;99.90;;;;;;5072983;28;20729;-54
2021/11/20 07:30:41;;;;;;;12.73;9.20;;;8.60;99.90;;;;;;5083384;28;20208;-53
2021/11/20 07:33:09;;;;;;;12.73;8.52;;;8.60;99.90;;;;;;5072463;28;20188;-54
2021/11/20 07:35:42;;;;;;;10.10;8.50;;;8.70;99.90;;;;;;5078598;28;20185;-54
2021/11/20 07:38:10;;;;;;;13.15;9.52;;;9.00;99.90;;;;;;5091327;28;20184;-54
2021/11/20 07:40:38;;;;;;;11.50;8.60;;;9.10;99.90;;;;;;5072193;28;20205;-54
2021/11/20 07:43:04;;;;;;;13.10;8.80;;;8.90;99.90;;;;;;5071257;28;20246;-54
2021/11/20 07:45:30;;;;;;;10.93;8.60;;;8.90;99.90;;;;;;5079977;28;20187;-53
2021/11/20 07:47:56;;;;;;;11.27;8.40;;;8.80;99.90;;;;;;5086710;28;20194;-53
2021/11/20 07:50:21;;;;;;;12.52;9.27;;;9.10;99.90;;;;;;5072593;28;20459;-53
2021/11/20 07:52:47;;;;;;;15.13;10.57;;;9.10;99.90;;;;;;5073029;28;20193;-54
2021/11/20 07:55:16;;;;;;;11.97;9.40;;;9.40;99.90;;;;;;5072442;28;20443;-53
2021/11/20 07:57:42;;;;;;;11.80;9.07;;;8.90;99.90;;;;;;5071162;28;20502;-53
2021/11/20 08:00:15;;;;;;;12.77;10.47;;;8.90;99.90;;;;;;5078486;28;20240;-54
2021/11/20 08:02:41;;;;;;;10.77;8.68;;;8.80;99.90;;;;;;5076564;28;20442;-54
2021/11/20 08:05:07;;;;;;;12.20;9.30;;;9.00;99.90;;;;;;5077510;28;20595;-54
2021/11/20 08:07:35;;;;;;;11.93;9.23;;;9.10;99.90;;;;;;5088198;28;20185;-53
2021/11/20 08:10:02;;;;;;;11.73;8.98;;;8.50;99.90;;;;;;5080359;28;20338;-53
2021/11/20 08:12:28;;;;;;;11.50;9.13;;;9.20;99.90;;;;;;5072949;28;20185;-53
2021/11/20 08:14:54;;;;;;;13.00;9.17;;;9.20;99.90;;;;;;5071213;28;20185;-54
2021/11/20 08:17:19;;;;;;;12.53;8.73;;;8.80;99.90;;;;;;5075765;28;20189;-53
2021/11/20 08:19:45;;;;;;;12.37;8.93;;;9.30;99.90;;;;;;5071072;28;20205;-54
2021/11/20 08:22:10;;;;;;;13.83;9.23;;;8.70;99.90;;;;;;5070052;28;20272;-54
2021/11/20 08:24:36;;;;;;;10.73;9.07;;;9.30;99.90;;;;;;5077631;28;20471;-54
2021/11/20 08:27:07;;;;;;;11.57;9.10;;;9.00;99.90;;;;;;5076558;28;20187;-54
2021/11/20 08:29:34;;;;;;;10.98;8.07;;;8.90;99.90;;;;;;5078633;28;20962;-53
2021/11/20 08:32:00;;;;;;;10.77;7.85;;;8.50;99.90;;;;;;5070871;28;20197;-53
2021/11/20 08:34:27;;;;;;;8.60;7.03;;;9.20;99.90;;;;;;5077651;28;20200;-53
2021/11/20 08:36:53;;;;;;;9.35;7.75;;;9.60;99.90;;;;;;5070735;28;20654;-53
2021/11/20 08:39:19;;;;;;;8.40;6.75;;;9.50;99.90;;;;;;5070763;28;20212;-55
2021/11/20 08:41:47;;;;;;;8.52;6.22;;;9.60;99.90;;;;;;5074459;28;20287;-53
2021/11/20 08:44:13;;;;;;;9.10;6.82;;;9.70;99.90;;;;;;5070619;28;20185;-54
2021/11/20 08:46:40;;;;;;;9.65;8.13;;;9.40;99.90;;;;;;5077704;28;20185;-54
2021/11/20 08:49:06;;;;;;;7.85;6.55;;;9.20;99.90;;;;;;5087376;28;20218;-53
2021/11/20 08:51:34;;;;;;;9.65;7.55;;;9.50;99.90;;;;;;5084256;28;20216;-54
2021/11/20 08:54:00;;;;;;;11.35;8.05;;;9.80;99.90;;;;;;5077333;28;20211;-53
2021/11/20 08:56:27;;;;;;;8.13;6.65;;;9.60;99.90;;;;;;5072759;28;20208;-54
2021/11/20 08:58:53;;;;;;;9.27;6.93;;;9.70;99.90;;;;;;5079395;28;20623;-53
2021/11/20 09:01:26;;;;;;;6.47;5.78;;;9.80;99.90;;;;;;5077966;28;20202;-54
2021/11/20 09:04:12;;;;;;;8.40;6.50;;;9.60;99.90;;;;;;5081839;28;20889;-55
2021/11/20 09:06:46;;;;;;;9.98;7.32;;;9.90;99.90;;;;;;5080268;28;20185;-54
2021/11/20 09:09:38;;;;;;;8.73;6.50;;;10.00;99.90;;;;;;5075235;28;20191;-54
2021/11/20 09:12:10;;;;;;;9.60;7.10;;;9.70;99.90;;;;;;5070337;28;20639;-55
2021/11/20 09:14:45;;;;;;;8.50;6.95;;;10.10;99.90;;;;;;5071168;28;20347;-55
2021/11/20 09:17:12;;;;;;;8.90;6.50;;;9.90;99.90;;;;;;5072819;28;20188;-55
2021/11/20 09:19:40;;;;;;;8.88;7.40;;;9.90;99.90;;;;;;5073342;28;20239;-55
2021/11/20 09:22:07;;;;;;;11.38;7.60;;;10.10;99.90;;;;;;5079000;28;20193;-54
2021/11/20 09:24:36;;;;;;;9.18;6.60;;;9.50;99.90;;;;;;5069661;28;20191;-55
2021/11/20 09:27:02;;;;;;;9.93;8.15;;;10.10;99.90;;;;;;5070301;28;20268;-54
2021/11/20 09:29:29;;;;;;;10.77;8.30;;;10.10;99.90;;;;;;5071308;28;20206;-54
2021/11/20 09:31:55;;;;;;;8.13;6.60;;;10.10;99.90;;;;;;5083892;28;20279;-55
2021/11/20 09:34:23;;;;;;;11.43;8.32;;;10.10;99.90;;;;;;5070100;28;20211;-55
2021/11/20 09:36:52;;;;;;;7.43;6.65;;;10.40;99.90;;;;;;5083259;28;20254;-56
2021/11/20 09:39:21;;;;;;;10.10;7.55;;;10.50;99.90;;;;;;5073234;28;20206;-55
2021/11/20 09:42:05;;;;;;;10.57;8.38;;;10.20;99.90;;;;;;5075847;28;20246;-55
2021/11/20 09:44:36;;;;;;;9.43;7.22;;;10.00;99.90;;;;;;5074039;28;20192;-55
2021/11/20 09:47:14;;;;;;;9.40;7.30;;;10.40;99.90;;;;;;5076417;28;20173;-55
2021/11/20 09:49:49;;;;;;;7.95;7.00;;;10.30;99.90;;;;;;5083187;28;20210;-54
2021/11/20 09:52:15;;;;;;;8.57;7.60;;;10.30;99.90;;;;;;5084066;28;20181;-55
2021/11/20 09:54:44;;;;;;;10.90;7.00;;;10.40;99.90;;;;;;5074369;28;20297;-54
2021/11/20 09:57:15;;;;;;;8.20;5.60;;;10.20;99.90;;;;;;5080629;28;20519;-54
2021/11/20 09:59:49;;;;;;;5.10;3.95;;;10.30;99.90;;;;;;5074628;28;20215;-54
2021/11/20 10:02:27;;;;;;;5.15;4.65;;;10.20;99.90;;;;;;5077450;28;20260;-55
2021/11/20 10:05:25;;;;;;;7.10;4.97;;;10.30;99.90;;;;;;5075546;28;20185;-55
2021/11/20 10:08:05;;;;;;;3.92;3.53;;;10.20;99.90;;;;;;5068711;28;20189;-55
2021/11/20 10:10:42;;;;;;;4.68;3.58;;;10.30;99.90;;;;;;5084453;28;20401;-55
2021/11/20 10:13:10;;;;;;;3.03;2.72;;;10.50;99.90;;;;;;5077125;28;20175;-54
2021/11/20 10:15:40;;;;;;;4.45;3.40;;;10.20;99.90;;;;;;5074355;28;20662;-55
2021/11/20 10:18:11;;;;;;;4.15;3.75;;;10.50;99.90;;;;;;5060757;28;20185;-54
2021/11/20 10:20:56;;;;;;;4.45;4.05;;;10.00;99.90;;;;;;5073765;28;20709;-56
2021/11/20 10:23:25;;;;;;;3.90;3.10;;;10.20;99.90;;;;;;5084964;28;20195;-56
2021/11/20 10:25:53;;;;;;;4.00;3.05;;;10.30;99.90;;;;;;5074845;28;20185;-56
2021/11/20 10:28:34;;;;;;;3.72;3.20;;;10.20;99.90;;;;;;5074496;28;20181;-56
2021/11/20 10:31:02;;;;;;;3.30;2.70;;;10.20;99.90;;;;;;5072552;28;20516;-54
2021/11/20 10:33:45;;;;;;;3.90;3.50;;;10.20;99.90;;;;;;5075496;28;20184;-55
2021/11/20 10:36:41;;;;;;;3.50;3.20;;;10.10;99.90;;;;;;5072683;28;20614;-55
2021/11/20 10:39:24;;;;;;;4.15;3.60;;;10.10;99.90;;;;;;5064686;28;20307;-55
2021/11/20 10:41:55;;;;;;;5.95;3.83;;;10.00;99.90;;;;;;5075927;28;20248;-55
2021/11/20 10:44:32;;;;;;;6.57;4.05;;;10.20;99.90;;;;;;5073260;28;20564;-55
2021/11/20 10:47:17;;;;;;;5.38;3.65;;;10.00;99.90;;;;;;5072913;28;20302;-56
2021/11/20 10:49:52;;;;;;;4.25;3.50;;;10.10;99.90;;;;;;5075940;28;20329;-55
2021/11/20 10:52:44;;;;;;;4.80;4.20;;;10.20;99.90;;;;;;5081997;28;20188;-55
2021/11/20 10:55:34;;;;;;;4.22;3.83;;;9.80;99.90;;;;;;5081274;28;20181;-55
2021/11/20 10:58:59;;;;;;;5.30;3.65;;;10.20;99.90;;;;;;5078396;28;20314;-55
2021/11/20 11:01:52;;;;;;;4.07;3.40;;;9.90;99.90;;;;;;4991238;28;20717;-55
2021/11/20 11:04:46;;;;;;;4.20;3.03;;;10.20;99.90;;;;;;4997334;28;20585;-55
2021/11/20 11:07:25;;;;;;;3.38;3.08;;;10.30;99.90;;;;;;5078753;28;20673;-55
2021/11/20 11:10:02;;;;;;;4.25;3.22;;;10.10;99.90;;;;;;5078818;28;20216;-55
2021/11/20 11:12:34;;;;;;;4.28;3.35;;;10.40;99.90;;;;;;5072250;28;20192;-55
2021/11/20 11:15:30;;;;;;;3.50;2.95;;;10.30;99.90;;;;;;5055055;28;20379;-56
2021/11/20 11:18:15;;;;;;;4.75;3.95;;;10.20;99.90;;;;;;5079066;28;20209;-55
2021/11/20 11:20:46;;;;;;;4.32;3.65;;;10.40;99.90;;;;;;5073108;28;20296;-54
2021/11/20 11:23:30;;;;;;;4.25;3.17;;;9.80;99.90;;;;;;5071916;28;20184;-54
2021/11/20 11:26:04;;;;;;;5.43;3.63;;;10.10;99.90;;;;;;5071824;28;20548;-54
2021/11/20 11:28:30;;;;;;;3.28;2.97;;;10.30;99.90;;;;;;5088913;28;20234;-54
2021/11/20 11:31:17;;;;;;;4.77;3.57;;;10.20;99.90;;;;;;5085903;28;20201;-54
2021/11/20 11:33:50;;;;;;;4.47;3.38;;;10.50;99.90;;;;;;5079163;28;20644;-54
2021/11/20 11:36:44;;;;;;;5.03;3.20;;;9.70;99.90;;;;;;5071759;28;20195;-54
2021/11/20 11:39:38;;;;;;;3.55;2.90;;;10.20;99.90;;;;;;5066579;28;20204;-54
2021/11/20 11:42:18;;;;;;;4.13;3.55;;;10.10;99.90;;;;;;5071766;28;20576;-55
2021/11/20 11:44:53;;;;;;;3.72;3.42;;;10.20;99.90;;;;;;5053326;28;20692;-54
2021/11/20 11:47:28;;;;;;;6.05;4.40;;;10.50;99.90;;;;;;5074946;28;20188;-54
2021/11/20 11:49:59;;;;;;;4.90;4.20;;;10.50;99.90;;;;;;5081870;28;20287;-54
2021/11/20 11:52:37;;;;;;;4.68;4.20;;;10.50;99.90;;;;;;5072837;28;20722;-54
2021/11/20 11:55:43;;;;;;;5.97;5.38;;;10.40;99.90;;;;;;5070971;28;20196;-54
2021/11/20 11:58:25;;;;;;;5.47;4.50;;;10.10;99.90;;;;;;5070944;28;20205;-54
2021/11/20 12:01:14;;;;;;;5.95;4.47;;;10.10;99.90;;;;;;5055496;28;20205;-54
2021/11/20 12:04:13;;;;;;;6.88;5.43;;;10.40;99.90;;;;;;5071972;28;20175;-55
2021/11/20 12:07:01;;;;;;;5.00;4.07;;;10.40;99.90;;;;;;5071012;28;20602;-54
2021/11/20 12:09:34;;;;;;;5.72;4.40;;;10.50;99.90;;;;;;5072982;28;20658;-54
2021/11/20 12:12:13;;;;;;;7.20;5.40;;;10.30;99.90;;;;;;5071470;28;20284;-54
2021/11/20 12:14:44;;;;;;;5.95;4.80;;;10.30;99.90;;;;;;5074574;28;20185;-55
2021/11/20 12:17:31;;;;;;;6.47;4.85;;;10.60;99.90;;;;;;5080157;28;20239;-55
2021/11/20 12:20:18;;;;;;;5.80;5.00;;;10.30;99.90;;;;;;5071354;28;20335;-54
2021/11/20 12:23:11;;;;;;;7.55;4.85;;;10.70;99.90;;;;;;5083578;28;20193;-54
2021/11/20 12:25:36;;;;;;;5.13;4.50;;;10.60;99.90;;;;;;5071362;28;20193;-54
2021/11/20 12:28:07;;;;;;;7.60;5.33;;;10.40;99.90;;;;;;5072652;28;20554;-53
2021/11/20 12:31:03;;;;;;;5.60;5.00;;;10.50;99.90;;;;;;5056445;28;20260;-54
2021/11/20 12:33:47;;;;;;;6.20;5.60;;;10.40;99.90;;;;;;5070863;28;20280;-54
2021/11/20 12:36:28;;;;;;;7.55;6.75;;;10.40;99.90;;;;;;5070185;28;20701;-54
2021/11/20 12:39:14;;;;;;;6.55;5.60;;;9.80;99.90;;;;;;5063626;28;20222;-55
2021/11/20 12:41:49;;;;;;;6.75;6.05;;;10.30;99.90;;;;;;5078574;28;20205;-54
2021/11/20 12:44:39;;;;;;;7.63;5.75;;;10.30;99.90;;;;;;5073923;28;20211;-54
2021/11/20 12:47:19;;;;;;;7.07;5.90;;;10.60;99.90;;;;;;5079053;28;20245;-54
2021/11/20 12:50:21;;;;;;;7.88;5.70;;;10.30;99.90;;;;;;5077190;28;20188;-54
2021/11/20 12:52:47;;;;;;;7.10;5.22;;;10.30;99.90;;;;;;5081614;28;20176;-55
2021/11/20 12:55:19;;;;;;;8.17;6.07;;;10.60;99.90;;;;;;5084261;28;20545;-55
2021/11/20 12:57:48;;;;;;;6.82;6.13;;;10.30;99.90;;;;;;5075200;28;20231;-54
2021/11/20 13:00:20;;;;;;;7.45;5.50;;;10.20;99.90;;;;;;5081823;28;20366;-54
2021/11/20 13:02:54;;;;;;;8.27;5.90;;;10.10;99.90;;;;;;5070702;28;20551;-54
2021/11/20 13:05:25;;;;;;;9.98;6.25;;;10.20;99.90;;;;;;5070834;28;20310;-54
2021/11/20 13:07:55;;;;;;;8.10;6.40;;;10.10;99.90;;;;;;5076316;28;20189;-54
2021/11/20 13:10:30;;;;;;;7.30;6.30;;;10.10;99.90;;;;;;5073304;28;20645;-54
2021/11/20 13:13:18;;;;;;;7.32;5.82;;;10.30;99.90;;;;;;5078635;28;20321;-55